Huvudsida
METAR-TAF:

METAR-TAF

Flygplatser :

Ängelholm-Helsingborg Airport

Helsingborg, Sverige

latitud: 56-17-46N, longitud: 012-50-50E, höjd: 21 m

Aktuellt väderrapport

Denna rapport gjordes för 18 minuter sedan, klockan 21:50 UTC
Vind 10 kt från syd/sydost
Temperatur 3°C
Fuktighet 93%
Tryck 1005 hPa
Sikt 10 km eller mer
Spridda moln på en höjd av 2200 ft
Brutna moln på en höjd av 15000 ft
Mulet på en höjd av 19000 ft

METAR: ESTA 112150Z 16010KT 9999 SCT022 BKN150 OVC190 03/02 Q1005

Tid: 23:08 (22:08 UTC)

Väderprognos

Denna rapport gjordes för 2 timmar och 2 minuter sedan, klockan 20:06 UTC
Prognos gäller från 11 kl. 21 UTC till 11 kl. 23 UTC
Vind 10 kt från sydost
Sikt 10 km eller mer
Spridda moln på en höjd av 1500 ft

TAF: ESTA 112006Z 1121/1123 14010KT 9999 SCT015

Aktuella väderrapporter och prognoser från 4000 flygplatser (METAR- och TAF-rapporter).

De tillgängliga stationerna syns som gula och röda prickar på kartan.

För musen över prickarna för att se namnen på stationerna.

Klicka sedan för att få väderrapporter och prognoser.

För att ändra kartan: Klicka på de gröna knapparna med ett svart kors på för att zooma in; den gröna knappen med ett streck på för att zooma ut; eller på de gröna pilarna för angränsande kartor.


METAR-TAF: